createdAt,value
2018-09-11T00:00:03.491Z,1030.47791673
2018-09-11T00:00:15.904Z,1030.54564449
2018-09-11T00:00:28.375Z,1030.54564449
2018-09-11T00:00:40.787Z,1030.54564449
2018-09-11T00:00:53.204Z,1030.54564449
2018-09-11T00:01:05.611Z,1030.51178061
2018-09-11T00:01:18.020Z,1030.51178061
2018-09-11T00:01:30.480Z,1030.51178061
2018-09-11T00:01:42.900Z,1030.51178061
2018-09-11T00:01:55.300Z,1030.51178061
2018-09-11T00:02:07.703Z,1030.54564449
2018-09-11T00:02:20.157Z,1030.54564449
2018-09-11T00:02:32.559Z,1030.54564449
2018-09-11T00:02:45.041Z,1030.54564449
2018-09-11T00:02:57.475Z,1030.54564449
2018-09-11T00:03:09.954Z,1030.54564449
2018-09-11T00:03:22.531Z,1030.54564449
2018-09-11T00:03:34.931Z,1030.54564449
2018-09-11T00:03:47.321Z,1030.54564449
2018-09-11T00:03:59.710Z,1030.54564449
2018-09-11T00:04:12.177Z,1030.61337225
2018-09-11T00:04:24.641Z,1030.61337225
2018-09-11T00:04:37.167Z,1030.61337225
2018-09-11T00:04:49.570Z,1030.61337225
2018-09-11T00:05:01.953Z,1030.61337225
2018-09-11T00:05:14.345Z,1030.57950837
2018-09-11T00:05:26.746Z,1030.57950837
2018-09-11T00:05:39.208Z,1030.57950837
2018-09-11T00:05:51.626Z,1030.57950837
2018-09-11T00:06:04.026Z,1030.68110002
2018-09-11T00:06:16.429Z,1030.68110002
2018-09-11T00:06:28.836Z,1030.68110002
2018-09-11T00:06:41.244Z,1030.68110002
2018-09-11T00:06:53.647Z,1030.68110002
2018-09-11T00:07:06.044Z,1030.61337225
2018-09-11T00:07:18.448Z,1030.61337225
2018-09-11T00:07:30.839Z,1030.61337225
2018-09-11T00:07:43.253Z,1030.61337225
2018-09-11T00:07:55.642Z,1030.61337225
2018-09-11T00:08:08.032Z,1030.68110002
2018-09-11T00:08:20.776Z,1030.68110002
2018-09-11T00:08:33.189Z,1030.68110002
2018-09-11T00:08:45.610Z,1030.68110002
2018-09-11T00:08:58.012Z,1030.68110002
2018-09-11T00:09:10.396Z,1030.51178061
2018-09-11T00:09:22.810Z,1030.51178061
2018-09-11T00:09:35.203Z,1030.51178061
2018-09-11T00:09:47.647Z,1030.51178061
2018-09-11T00:10:00.040Z,1030.51178061
2018-09-11T00:10:12.451Z,1030.61337225
2018-09-11T00:10:24.981Z,1030.61337225
2018-09-11T00:10:37.381Z,1030.61337225
2018-09-11T00:10:49.782Z,1030.61337225
2018-09-11T00:11:02.201Z,1030.61337225
2018-09-11T00:11:14.588Z,1030.64723614
2018-09-11T00:11:26.985Z,1030.64723614
2018-09-11T00:11:39.552Z,1030.64723614
2018-09-11T00:11:51.944Z,1030.64723614
2018-09-11T00:12:04.481Z,1030.64723614
2018-09-11T00:12:16.922Z,1030.64723614
2018-09-11T00:12:29.332Z,1030.64723614
2018-09-11T00:12:41.747Z,1030.64723614
2018-09-11T00:12:54.155Z,1030.64723614
2018-09-11T00:13:06.572Z,1030.68110002
2018-09-11T00:13:19.015Z,1030.68110002
2018-09-11T00:13:31.415Z,1030.68110002
2018-09-11T00:13:43.805Z,1030.68110002
2018-09-11T00:13:56.200Z,1030.68110002
2018-09-11T00:14:08.605Z,1030.61337225
2018-09-11T00:14:21.003Z,1030.61337225
2018-09-11T00:14:33.400Z,1030.61337225
2018-09-11T00:14:45.810Z,1030.61337225
2018-09-11T00:14:58.229Z,1030.61337225
2018-09-11T00:15:10.645Z,1030.7149639
2018-09-11T00:15:23.056Z,1030.7149639
2018-09-11T00:15:35.447Z,1030.7149639
2018-09-11T00:15:47.873Z,1030.7149639
2018-09-11T00:16:00.279Z,1030.7149639
2018-09-11T00:16:12.672Z,1030.7149639
2018-09-11T00:16:25.090Z,1030.7149639
2018-09-11T00:16:37.509Z,1030.7149639
2018-09-11T00:16:49.893Z,1030.7149639
2018-09-11T00:17:02.328Z,1030.68110002
2018-09-11T00:17:14.759Z,1030.68110002
2018-09-11T00:17:27.173Z,1030.68110002
2018-09-11T00:17:40.453Z,1030.68110002
2018-09-11T00:17:52.836Z,1030.68110002
2018-09-11T00:18:05.234Z,1030.7149639
2018-09-11T00:18:17.755Z,1030.7149639
2018-09-11T00:18:30.164Z,1030.7149639
2018-09-11T00:18:42.559Z,1030.7149639
2018-09-11T00:18:54.947Z,1030.7149639
2018-09-11T00:19:07.328Z,1030.7149639
2018-09-11T00:19:19.748Z,1030.7149639
2018-09-11T00:19:32.184Z,1030.7149639
2018-09-11T00:19:44.618Z,1030.7149639
2018-09-11T00:19:57.025Z,1030.7149639
2018-09-11T00:20:09.448Z,1030.88428331
2018-09-11T00:20:21.851Z,1030.88428331
2018-09-11T00:20:34.245Z,1030.88428331
2018-09-11T00:20:46.651Z,1030.88428331
2018-09-11T00:20:59.203Z,1030.88428331
2018-09-11T00:21:11.600Z,1030.81655554
2018-09-11T00:21:23.991Z,1030.81655554
2018-09-11T00:21:36.473Z,1030.81655554
2018-09-11T00:21:48.881Z,1030.81655554
2018-09-11T00:22:01.279Z,1030.81655554
2018-09-11T00:22:13.666Z,1030.7149639
2018-09-11T00:22:26.073Z,1030.7149639
2018-09-11T00:22:38.561Z,1030.7149639
2018-09-11T00:22:50.952Z,1030.7149639
2018-09-11T00:23:03.369Z,1030.78269166
2018-09-11T00:23:15.918Z,1030.78269166
2018-09-11T00:23:28.322Z,1030.78269166
2018-09-11T00:23:40.722Z,1030.78269166
2018-09-11T00:23:53.328Z,1030.78269166
2018-09-11T00:24:05.719Z,1030.81655554
2018-09-11T00:24:18.122Z,1030.81655554
2018-09-11T00:24:30.514Z,1030.81655554
2018-09-11T00:24:42.896Z,1030.81655554
2018-09-11T00:24:55.411Z,1030.81655554
2018-09-11T00:25:07.828Z,1030.78269166
2018-09-11T00:25:20.221Z,1030.78269166
2018-09-11T00:25:32.613Z,1030.78269166
2018-09-11T00:25:45.002Z,1030.78269166
2018-09-11T00:25:57.395Z,1030.78269166
2018-09-11T00:26:09.800Z,1030.81655554
2018-09-11T00:26:22.210Z,1030.81655554
2018-09-11T00:26:34.621Z,1030.81655554
2018-09-11T00:26:47.028Z,1030.81655554
2018-09-11T00:26:59.424Z,1030.81655554
2018-09-11T00:27:11.803Z,1030.74882778
2018-09-11T00:27:24.256Z,1030.74882778
2018-09-11T00:27:36.773Z,1030.74882778
2018-09-11T00:27:49.176Z,1030.74882778
2018-09-11T00:28:01.574Z,1030.74882778
2018-09-11T00:28:13.961Z,1030.68110002
2018-09-11T00:28:26.350Z,1030.68110002
2018-09-11T00:28:38.743Z,1030.68110002
2018-09-11T00:28:51.129Z,1030.68110002
2018-09-11T00:29:03.524Z,1030.74882778
2018-09-11T00:29:15.960Z,1030.74882778
2018-09-11T00:29:28.374Z,1030.74882778
2018-09-11T00:29:40.781Z,1030.74882778
2018-09-11T00:29:53.281Z,1030.74882778
2018-09-11T00:30:05.692Z,1030.78269166
2018-09-11T00:30:18.120Z,1030.78269166
2018-09-11T00:30:30.737Z,1030.78269166
2018-09-11T00:30:43.123Z,1030.78269166
2018-09-11T00:30:55.514Z,1030.78269166
2018-09-11T00:31:07.919Z,1030.81655554
2018-09-11T00:31:20.310Z,1030.81655554
2018-09-11T00:31:32.705Z,1030.81655554
2018-09-11T00:31:45.111Z,1030.81655554
2018-09-11T00:31:57.499Z,1030.81655554
2018-09-11T00:32:09.889Z,1030.88428331
2018-09-11T00:32:22.283Z,1030.88428331
2018-09-11T00:32:34.658Z,1030.88428331
2018-09-11T00:32:47.055Z,1030.88428331
2018-09-11T00:32:59.575Z,1030.88428331
2018-09-11T00:33:11.960Z,1030.95201107
2018-09-11T00:33:24.358Z,1030.95201107
2018-09-11T00:33:36.755Z,1030.95201107
2018-09-11T00:33:49.146Z,1030.95201107
2018-09-11T00:34:01.571Z,1030.95201107
2018-09-11T00:34:13.989Z,1030.88428331
2018-09-11T00:34:26.419Z,1030.88428331
2018-09-11T00:34:38.877Z,1030.88428331
2018-09-11T00:34:51.421Z,1030.88428331
2018-09-11T00:35:03.845Z,1030.85041943
2018-09-11T00:35:16.253Z,1030.85041943
2018-09-11T00:35:28.697Z,1030.85041943
2018-09-11T00:35:41.074Z,1030.85041943
2018-09-11T00:35:53.525Z,1030.85041943
2018-09-11T00:36:06.063Z,1030.81655554
2018-09-11T00:36:18.488Z,1030.81655554
2018-09-11T00:36:30.903Z,1030.81655554
2018-09-11T00:36:43.308Z,1030.81655554
2018-09-11T00:36:55.699Z,1030.81655554
2018-09-11T00:37:08.271Z,1030.98587495
2018-09-11T00:37:20.691Z,1030.98587495
2018-09-11T00:37:33.119Z,1030.98587495
2018-09-11T00:37:45.508Z,1030.98587495
2018-09-11T00:37:57.925Z,1030.98587495
2018-09-11T00:38:10.335Z,1030.88428331
2018-09-11T00:38:22.730Z,1030.88428331
2018-09-11T00:38:35.130Z,1030.88428331
2018-09-11T00:38:47.533Z,1030.88428331
2018-09-11T00:38:59.932Z,1030.88428331
2018-09-11T00:39:12.325Z,1030.85041943
2018-09-11T00:39:24.727Z,1030.85041943
2018-09-11T00:39:37.132Z,1030.85041943
2018-09-11T00:39:49.528Z,1030.85041943
2018-09-11T00:40:01.921Z,1030.85041943
2018-09-11T00:40:14.306Z,1030.81655554
2018-09-11T00:40:26.715Z,1030.81655554
2018-09-11T00:40:39.130Z,1030.81655554
2018-09-11T00:40:51.547Z,1030.81655554
2018-09-11T00:41:04.070Z,1030.78269166
2018-09-11T00:41:16.480Z,1030.78269166
2018-09-11T00:41:28.881Z,1030.78269166
2018-09-11T00:41:41.286Z,1030.78269166
2018-09-11T00:41:53.668Z,1030.78269166
2018-09-11T00:42:06.059Z,1030.78269166
2018-09-11T00:42:18.469Z,1030.78269166
2018-09-11T00:42:30.874Z,1030.78269166
2018-09-11T00:42:43.281Z,1030.78269166
2018-09-11T00:42:55.679Z,1030.78269166
2018-09-11T00:43:08.111Z,1030.68110002
2018-09-11T00:43:20.504Z,1030.68110002
2018-09-11T00:43:32.906Z,1030.68110002
2018-09-11T00:43:45.335Z,1030.68110002
2018-09-11T00:43:57.795Z,1030.68110002
2018-09-11T00:44:10.196Z,1030.7149639
2018-09-11T00:44:22.595Z,1030.7149639
2018-09-11T00:44:35.004Z,1030.7149639
2018-09-11T00:44:47.456Z,1030.7149639
2018-09-11T00:44:59.837Z,1030.7149639
2018-09-11T00:45:12.242Z,1030.61337225
2018-09-11T00:45:24.640Z,1030.61337225
2018-09-11T00:45:37.015Z,1030.61337225
2018-09-11T00:45:49.412Z,1030.61337225
2018-09-11T00:46:01.989Z,1030.61337225
2018-09-11T00:46:14.402Z,1030.61337225
2018-09-11T00:46:26.789Z,1030.61337225
2018-09-11T00:46:39.189Z,1030.61337225
2018-09-11T00:46:51.725Z,1030.61337225
2018-09-11T00:47:04.114Z,1030.7149639
2018-09-11T00:47:16.525Z,1030.7149639
2018-09-11T00:47:28.926Z,1030.7149639
2018-09-11T00:47:41.336Z,1030.7149639
2018-09-11T00:47:53.730Z,1030.7149639
2018-09-11T00:48:06.136Z,1030.68110002
2018-09-11T00:48:18.545Z,1030.68110002
2018-09-11T00:48:30.972Z,1030.68110002
2018-09-11T00:48:43.362Z,1030.68110002
2018-09-11T00:48:55.776Z,1030.68110002
2018-09-11T00:49:08.201Z,1030.68110002
2018-09-11T00:49:20.760Z,1030.68110002
2018-09-11T00:49:33.181Z,1030.68110002
2018-09-11T00:49:45.597Z,1030.68110002
2018-09-11T00:49:57.987Z,1030.68110002
2018-09-11T00:50:10.392Z,1030.57950837
2018-09-11T00:50:22.781Z,1030.57950837
2018-09-11T00:50:35.178Z,1030.57950837
2018-09-11T00:50:47.590Z,1030.57950837
2018-09-11T00:50:59.989Z,1030.57950837
2018-09-11T00:51:12.392Z,1030.54564449
2018-09-11T00:51:24.784Z,1030.54564449
2018-09-11T00:51:37.166Z,1030.54564449
2018-09-11T00:51:50.439Z,1030.54564449
2018-09-11T00:52:04.113Z,1030.61337225
2018-09-11T00:52:16.516Z,1030.61337225
2018-09-11T00:52:28.932Z,1030.61337225
2018-09-11T00:52:41.330Z,1030.61337225
2018-09-11T00:52:54.011Z,1030.61337225
2018-09-11T00:53:06.422Z,1030.57950837
2018-09-11T00:53:18.820Z,1030.57950837
2018-09-11T00:53:31.239Z,1030.57950837
2018-09-11T00:53:43.636Z,1030.57950837
2018-09-11T00:53:56.046Z,1030.57950837
2018-09-11T00:54:08.462Z,1030.68110002
2018-09-11T00:54:20.846Z,1030.68110002
2018-09-11T00:54:33.248Z,1030.68110002
2018-09-11T00:54:45.650Z,1030.68110002
2018-09-11T00:54:58.059Z,1030.68110002
2018-09-11T00:55:10.470Z,1030.61337225
2018-09-11T00:55:22.905Z,1030.61337225
2018-09-11T00:55:35.371Z,1030.61337225
2018-09-11T00:55:47.787Z,1030.61337225
2018-09-11T00:56:00.185Z,1030.61337225
2018-09-11T00:56:12.564Z,1030.61337225
2018-09-11T00:56:24.961Z,1030.61337225
2018-09-11T00:56:37.351Z,1030.61337225
2018-09-11T00:56:49.788Z,1030.61337225
2018-09-11T00:57:02.185Z,1030.61337225
2018-09-11T00:57:14.591Z,1030.57950837
2018-09-11T00:57:26.988Z,1030.57950837
2018-09-11T00:57:39.379Z,1030.57950837
2018-09-11T00:57:51.915Z,1030.57950837
2018-09-11T00:58:04.324Z,1030.54564449
2018-09-11T00:58:16.712Z,1030.54564449
2018-09-11T00:58:29.122Z,1030.54564449
2018-09-11T00:58:41.554Z,1030.54564449
2018-09-11T00:58:54.269Z,1030.54564449
2018-09-11T00:59:06.737Z,1030.61337225
2018-09-11T00:59:19.145Z,1030.61337225
2018-09-11T00:59:31.529Z,1030.61337225
2018-09-11T00:59:43.970Z,1030.61337225
2018-09-11T00:59:56.358Z,1030.61337225
2018-09-11T01:00:08.824Z,1030.51178061
2018-09-11T01:00:21.371Z,1030.51178061
2018-09-11T01:00:33.812Z,1030.51178061
2018-09-11T01:00:46.220Z,1030.51178061
2018-09-11T01:00:58.646Z,1030.51178061
2018-09-11T01:01:11.044Z,1030.51178061
2018-09-11T01:01:23.463Z,1030.51178061
2018-09-11T01:01:36.079Z,1030.51178061
2018-09-11T01:01:48.504Z,1030.51178061
2018-09-11T01:02:00.937Z,1030.51178061
2018-09-11T01:02:13.350Z,1030.47791673
2018-09-11T01:02:25.741Z,1030.47791673
2018-09-11T01:02:38.145Z,1030.47791673
2018-09-11T01:02:50.578Z,1030.47791673
2018-09-11T01:03:02.992Z,1030.44405285
2018-09-11T01:03:15.544Z,1030.44405285
2018-09-11T01:03:27.955Z,1030.44405285
2018-09-11T01:03:40.365Z,1030.44405285
2018-09-11T01:03:52.777Z,1030.44405285
2018-09-11T01:04:05.211Z,1030.51178061
2018-09-11T01:04:17.641Z,1030.51178061
2018-09-11T01:04:30.074Z,1030.51178061
2018-09-11T01:04:42.492Z,1030.51178061
2018-09-11T01:04:54.909Z,1030.51178061
2018-09-11T01:05:07.315Z,1030.54564449
2018-09-11T01:05:19.763Z,1030.54564449
2018-09-11T01:05:32.176Z,1030.54564449
2018-09-11T01:05:44.590Z,1030.54564449
2018-09-11T01:05:56.992Z,1030.54564449
2018-09-11T01:06:09.411Z,1030.61337225
2018-09-11T01:06:21.795Z,1030.61337225
2018-09-11T01:06:34.274Z,1030.61337225
2018-09-11T01:06:46.676Z,1030.61337225
2018-09-11T01:06:59.099Z,1030.61337225
2018-09-11T01:07:11.508Z,1030.61337225
2018-09-11T01:07:23.923Z,1030.61337225
2018-09-11T01:07:36.324Z,1030.61337225
2018-09-11T01:07:48.729Z,1030.61337225
2018-09-11T01:08:01.138Z,1030.61337225
2018-09-11T01:08:13.539Z,1030.51178061
2018-09-11T01:08:25.932Z,1030.51178061
2018-09-11T01:08:38.551Z,1030.51178061
2018-09-11T01:08:50.953Z,1030.51178061
2018-09-11T01:09:03.366Z,1030.61337225
2018-09-11T01:09:15.779Z,1030.61337225
2018-09-11T01:09:28.175Z,1030.61337225
2018-09-11T01:09:40.716Z,1030.61337225
2018-09-11T01:09:53.548Z,1030.61337225
2018-09-11T01:10:06.270Z,1030.57950837
2018-09-11T01:10:19.919Z,1030.57950837
2018-09-11T01:10:32.574Z,1030.57950837
2018-09-11T01:10:44.975Z,1030.57950837
2018-09-11T01:10:57.381Z,1030.57950837
2018-09-11T01:11:09.816Z,1030.57950837
2018-09-11T01:11:22.203Z,1030.57950837
2018-09-11T01:11:34.605Z,1030.57950837
2018-09-11T01:11:47.089Z,1030.57950837
2018-09-11T01:11:59.646Z,1030.57950837
2018-09-11T01:12:12.026Z,1030.68110002
2018-09-11T01:12:24.431Z,1030.68110002
2018-09-11T01:12:36.837Z,1030.68110002
2018-09-11T01:12:49.242Z,1030.68110002
2018-09-11T01:13:01.641Z,1030.68110002
2018-09-11T01:13:14.086Z,1030.7149639
2018-09-11T01:13:26.500Z,1030.7149639
2018-09-11T01:13:38.948Z,1030.7149639
2018-09-11T01:13:51.420Z,1030.7149639
2018-09-11T01:14:03.832Z,1030.7149639
2018-09-11T01:14:16.229Z,1030.7149639
2018-09-11T01:14:28.671Z,1030.7149639
2018-09-11T01:14:41.104Z,1030.7149639
2018-09-11T01:14:53.521Z,1030.7149639
2018-09-11T01:15:05.918Z,1030.64723614
2018-09-11T01:15:18.327Z,1030.64723614
2018-09-11T01:15:30.733Z,1030.64723614
2018-09-11T01:15:43.135Z,1030.64723614
2018-09-11T01:15:55.522Z,1030.64723614
2018-09-11T01:16:07.956Z,1030.61337225
2018-09-11T01:16:20.355Z,1030.61337225
2018-09-11T01:16:32.768Z,1030.61337225
2018-09-11T01:16:45.166Z,1030.61337225
2018-09-11T01:16:57.567Z,1030.61337225
2018-09-11T01:17:09.977Z,1030.61337225
2018-09-11T01:17:22.379Z,1030.61337225
2018-09-11T01:17:35.305Z,1030.61337225
2018-09-11T01:17:47.880Z,1030.61337225
2018-09-11T01:18:00.303Z,1030.61337225
2018-09-11T01:18:12.763Z,1030.64723614
2018-09-11T01:18:25.185Z,1030.64723614
2018-09-11T01:18:37.653Z,1030.64723614
2018-09-11T01:18:50.270Z,1030.64723614
2018-09-11T01:19:02.692Z,1030.68110002
2018-09-11T01:19:15.098Z,1030.68110002
2018-09-11T01:19:27.524Z,1030.68110002
2018-09-11T01:19:39.926Z,1030.68110002
2018-09-11T01:19:52.331Z,1030.68110002
2018-09-11T01:20:04.721Z,1030.64723614
2018-09-11T01:20:17.132Z,1030.64723614
2018-09-11T01:20:29.548Z,1030.64723614
2018-09-11T01:20:41.943Z,1030.64723614
2018-09-11T01:20:54.471Z,1030.64723614
2018-09-11T01:21:06.878Z,1030.61337225
2018-09-11T01:21:19.305Z,1030.61337225
2018-09-11T01:21:31.707Z,1030.61337225
2018-09-11T01:21:44.111Z,1030.61337225
2018-09-11T01:21:56.526Z,1030.61337225
2018-09-11T01:22:08.949Z,1030.61337225
2018-09-11T01:22:21.363Z,1030.61337225
2018-09-11T01:22:33.762Z,1030.61337225
2018-09-11T01:22:46.165Z,1030.61337225
2018-09-11T01:22:58.578Z,1030.61337225
2018-09-11T01:23:11.009Z,1030.7149639
2018-09-11T01:23:23.416Z,1030.7149639
2018-09-11T01:23:35.816Z,1030.7149639
2018-09-11T01:23:48.488Z,1030.7149639
2018-09-11T01:24:01.041Z,1030.7149639
2018-09-11T01:24:13.453Z,1030.68110002
2018-09-11T01:24:25.905Z,1030.68110002
2018-09-11T01:24:38.340Z,1030.68110002
2018-09-11T01:24:50.812Z,1030.68110002
2018-09-11T01:25:03.247Z,1030.78269166
2018-09-11T01:25:15.692Z,1030.78269166
2018-09-11T01:25:28.085Z,1030.78269166
2018-09-11T01:25:40.489Z,1030.78269166
2018-09-11T01:25:52.906Z,1030.78269166
2018-09-11T01:26:05.315Z,1030.78269166
2018-09-11T01:26:17.725Z,1030.78269166
2018-09-11T01:26:30.134Z,1030.78269166
2018-09-11T01:26:42.540Z,1030.78269166
2018-09-11T01:26:54.938Z,1030.78269166
2018-09-11T01:27:07.337Z,1030.7149639
2018-09-11T01:27:19.750Z,1030.7149639
2018-09-11T01:27:32.267Z,1030.7149639
2018-09-11T01:27:44.686Z,1030.7149639
2018-09-11T01:27:57.103Z,1030.7149639
2018-09-11T01:28:09.497Z,1030.78269166
2018-09-11T01:28:21.896Z,1030.78269166
2018-09-11T01:28:34.296Z,1030.78269166
2018-09-11T01:28:46.698Z,1030.78269166
2018-09-11T01:28:59.146Z,1030.78269166
2018-09-11T01:29:11.564Z,1030.74882778
2018-09-11T01:29:23.965Z,1030.74882778
2018-09-11T01:29:36.653Z,1030.74882778
2018-09-11T01:29:49.072Z,1030.74882778
2018-09-11T01:30:01.493Z,1030.74882778
2018-09-11T01:30:13.919Z,1030.7149639
2018-09-11T01:30:26.519Z,1030.7149639
2018-09-11T01:30:39.147Z,1030.7149639
2018-09-11T01:30:51.554Z,1030.7149639
2018-09-11T01:31:03.959Z,1030.74882778
2018-09-11T01:31:16.361Z,1030.74882778
2018-09-11T01:31:28.759Z,1030.74882778
2018-09-11T01:31:41.162Z,1030.74882778
2018-09-11T01:31:53.562Z,1030.74882778
2018-09-11T01:32:05.955Z,1030.74882778
2018-09-11T01:32:18.362Z,1030.74882778
2018-09-11T01:32:30.760Z,1030.74882778
2018-09-11T01:32:43.163Z,1030.74882778
2018-09-11T01:32:55.571Z,1030.74882778
2018-09-11T01:33:07.970Z,1030.7149639
2018-09-11T01:33:20.400Z,1030.7149639
2018-09-11T01:33:32.929Z,1030.7149639
2018-09-11T01:33:45.480Z,1030.7149639
2018-09-11T01:33:57.878Z,1030.7149639
2018-09-11T01:34:10.292Z,1030.68110002
2018-09-11T01:34:22.766Z,1030.68110002
2018-09-11T01:34:35.165Z,1030.68110002
2018-09-11T01:34:47.556Z,1030.68110002
2018-09-11T01:34:59.947Z,1030.68110002
2018-09-11T01:35:12.354Z,1030.7149639
2018-09-11T01:35:24.757Z,1030.7149639
2018-09-11T01:35:37.173Z,1030.7149639
2018-09-11T01:35:49.575Z,1030.7149639
2018-09-11T01:36:01.993Z,1030.7149639
2018-09-11T01:36:14.384Z,1030.61337225
2018-09-11T01:36:26.809Z,1030.61337225
2018-09-11T01:36:39.226Z,1030.61337225
2018-09-11T01:36:51.641Z,1030.61337225
2018-09-11T01:37:04.049Z,1030.57950837
2018-09-11T01:37:16.452Z,1030.57950837
2018-09-11T01:37:28.876Z,1030.57950837
2018-09-11T01:37:41.302Z,1030.57950837
2018-09-11T01:37:53.759Z,1030.57950837
2018-09-11T01:38:06.188Z,1030.54564449
2018-09-11T01:38:18.590Z,1030.54564449
2018-09-11T01:38:30.997Z,1030.54564449
2018-09-11T01:38:43.600Z,1030.54564449
2018-09-11T01:38:56.031Z,1030.54564449
2018-09-11T01:39:08.441Z,1030.54564449
2018-09-11T01:39:20.858Z,1030.54564449
2018-09-11T01:39:33.285Z,1030.54564449
2018-09-11T01:39:45.683Z,1030.54564449
2018-09-11T01:39:58.092Z,1030.54564449
2018-09-11T01:40:10.486Z,1030.61337225
2018-09-11T01:40:22.911Z,1030.61337225
2018-09-11T01:40:35.319Z,1030.61337225
2018-09-11T01:40:47.711Z,1030.61337225
2018-09-11T01:41:00.089Z,1030.61337225
2018-09-11T01:41:12.476Z,1030.61337225
2018-09-11T01:41:24.888Z,1030.61337225
2018-09-11T01:41:37.274Z,1030.61337225
2018-09-11T01:41:49.665Z,1030.61337225
2018-09-11T01:42:02.077Z,1030.61337225
2018-09-11T01:42:14.554Z,1030.57950837
2018-09-11T01:42:26.951Z,1030.57950837
2018-09-11T01:42:39.347Z,1030.57950837
2018-09-11T01:42:51.741Z,1030.57950837
2018-09-11T01:43:04.155Z,1030.54564449
2018-09-11T01:43:16.555Z,1030.54564449
2018-09-11T01:43:28.949Z,1030.54564449
2018-09-11T01:43:41.671Z,1030.54564449
2018-09-11T01:43:54.213Z,1030.54564449
2018-09-11T01:44:06.623Z,1030.54564449
2018-09-11T01:44:19.034Z,1030.54564449
2018-09-11T01:44:31.514Z,1030.54564449
2018-09-11T01:44:43.942Z,1030.54564449
2018-09-11T01:44:56.341Z,1030.54564449
2018-09-11T01:45:08.762Z,1030.51178061
2018-09-11T01:45:21.181Z,1030.51178061
2018-09-11T01:45:33.603Z,1030.51178061
2018-09-11T01:45:46.015Z,1030.51178061
2018-09-11T01:45:58.444Z,1030.51178061
2018-09-11T01:46:10.853Z,1030.47791673
2018-09-11T01:46:23.268Z,1030.47791673
2018-09-11T01:46:35.664Z,1030.47791673
2018-09-11T01:46:48.068Z,1030.47791673
2018-09-11T01:47:00.453Z,1030.47791673
2018-09-11T01:47:12.862Z,1030.44405285
2018-09-11T01:47:25.311Z,1030.44405285
2018-09-11T01:47:38.000Z,1030.44405285
2018-09-11T01:47:50.425Z,1030.44405285
2018-09-11T01:48:02.847Z,1030.51178061
2018-09-11T01:48:15.253Z,1030.51178061
2018-09-11T01:48:27.672Z,1030.51178061
2018-09-11T01:48:40.140Z,1030.51178061
2018-09-11T01:48:52.561Z,1030.51178061
2018-09-11T01:49:04.949Z,1030.47791673
2018-09-11T01:49:17.459Z,1030.47791673
2018-09-11T01:49:29.852Z,1030.47791673
2018-09-11T01:49:42.251Z,1030.47791673
2018-09-11T01:49:54.705Z,1030.47791673
2018-09-11T01:50:07.121Z,1030.44405285
2018-09-11T01:50:19.545Z,1030.44405285
2018-09-11T01:50:31.957Z,1030.44405285
2018-09-11T01:50:44.367Z,1030.44405285
2018-09-11T01:50:56.786Z,1030.44405285
2018-09-11T01:51:09.184Z,1030.51178061
2018-09-11T01:51:21.652Z,1030.51178061
2018-09-11T01:51:34.040Z,1030.51178061
2018-09-11T01:51:46.441Z,1030.51178061
2018-09-11T01:51:58.833Z,1030.51178061
2018-09-11T01:52:11.246Z,1030.44405285
2018-09-11T01:52:23.677Z,1030.44405285
2018-09-11T01:52:36.082Z,1030.44405285
2018-09-11T01:52:48.479Z,1030.44405285
2018-09-11T01:53:00.881Z,1030.44405285
2018-09-11T01:53:13.284Z,1030.44405285
2018-09-11T01:53:25.688Z,1030.44405285
2018-09-11T01:53:38.140Z,1030.44405285
2018-09-11T01:53:50.570Z,1030.44405285
2018-09-11T01:54:03.117Z,1030.44405285
2018-09-11T01:54:15.539Z,1030.44405285
2018-09-11T01:54:27.932Z,1030.44405285
2018-09-11T01:54:40.313Z,1030.44405285
2018-09-11T01:54:52.709Z,1030.44405285
2018-09-11T01:55:05.130Z,1030.44405285
2018-09-11T01:55:17.528Z,1030.44405285
2018-09-11T01:55:29.944Z,1030.44405285
2018-09-11T01:55:42.357Z,1030.44405285
2018-09-11T01:55:54.779Z,1030.44405285
2018-09-11T01:56:07.207Z,1030.30859732
2018-09-11T01:56:19.599Z,1030.30859732
2018-09-11T01:56:32.011Z,1030.30859732
2018-09-11T01:56:44.415Z,1030.30859732
2018-09-11T01:56:56.833Z,1030.30859732
2018-09-11T01:57:09.274Z,1030.37632508
2018-09-11T01:57:21.707Z,1030.37632508
2018-09-11T01:57:34.137Z,1030.37632508
2018-09-11T01:57:46.545Z,1030.37632508
2018-09-11T01:57:58.954Z,1030.37632508
2018-09-11T01:58:11.368Z,1030.41018896
2018-09-11T01:58:23.785Z,1030.41018896
2018-09-11T01:58:36.215Z,1030.41018896
2018-09-11T01:58:48.617Z,1030.41018896
2018-09-11T01:59:01.284Z,1030.41018896
2018-09-11T01:59:13.707Z,1030.37632508
2018-09-11T01:59:26.126Z,1030.37632508
2018-09-11T01:59:38.537Z,1030.37632508
2018-09-11T01:59:50.937Z,1030.37632508
2018-09-11T02:00:03.344Z,1030.37632508
2018-09-11T02:00:15.753Z,1030.44405285
2018-09-11T02:00:28.317Z,1030.44405285
2018-09-11T02:00:40.747Z,1030.44405285
2018-09-11T02:00:53.157Z,1030.44405285
2018-09-11T02:01:05.598Z,1030.3424612
2018-09-11T02:01:18.015Z,1030.3424612
2018-09-11T02:01:30.437Z,1030.3424612
2018-09-11T02:01:42.844Z,1030.3424612
2018-09-11T02:01:55.247Z,1030.3424612
2018-09-11T02:02:07.655Z,1030.37632508
2018-09-11T02:02:20.040Z,1030.37632508
2018-09-11T02:02:32.452Z,1030.37632508
2018-09-11T02:02:44.850Z,1030.37632508
2018-09-11T02:02:57.271Z,1030.37632508
2018-09-11T02:03:09.686Z,1030.41018896
2018-09-11T02:03:22.203Z,1030.41018896
2018-09-11T02:03:34.604Z,1030.41018896
2018-09-11T02:03:47.011Z,1030.41018896
2018-09-11T02:03:59.424Z,1030.41018896
2018-09-11T02:04:11.865Z,1030.41018896
2018-09-11T02:04:24.258Z,1030.41018896
2018-09-11T02:04:36.657Z,1030.41018896
2018-09-11T02:04:49.110Z,1030.41018896
2018-09-11T02:05:01.552Z,1030.41018896
2018-09-11T02:05:13.981Z,1030.37632508
2018-09-11T02:05:26.402Z,1030.37632508
2018-09-11T02:05:38.794Z,1030.37632508
2018-09-11T02:05:51.221Z,1030.37632508
2018-09-11T02:06:03.635Z,1030.37632508
2018-09-11T02:06:16.051Z,1030.37632508
2018-09-11T02:06:28.467Z,1030.37632508
2018-09-11T02:06:40.928Z,1030.37632508
2018-09-11T02:06:53.347Z,1030.37632508
2018-09-11T02:07:05.809Z,1030.41018896
2018-09-11T02:07:18.244Z,1030.41018896
2018-09-11T02:07:30.653Z,1030.41018896